東北METAR電文


大湊(RJSO)
07/19 16:00
METAR RJSO 190700Z 27003KT 240V310 9999 -SHRA FEW020 BKN030 26/23
Q1006 RMK 1CU020 7CU030 A2973=

大湊(O-RH)
07/19 16:00
METAR O-RH 190700Z NIL=

青森(RJSA)
07/19 16:00
METAR RJSA 190700Z 21014KT 9999 FEW015 SCT025 BKN035 26/23 Q1007 RMK
1CU015 3CU025 7CU035 A2975=

三沢(RJSM)
07/19 16:00
METAR RJSM 190700Z 20009KT 170V240 9999 FEW015 BKN030 BKN050 27/23
Q1007 RMK 1CU015 5CU030 5SC050 A2975=

八戸(RJSH)
07/19 16:00
METAR RJSH 190700Z 22005KT 9999 FEW020 BKN035 BKN100 28/25 Q1007 RMK
1CU020 6CU035 7AC100 A2975=

秋田(RJSK)
07/19 16:00
METAR RJSK 190700Z VRB02KT 9999 FEW001 BKN030 BKN035 26/23 Q1008 RMK
1ST001 6CU030 7CU035 A2979=

大館能代(RJSR)
07/19 16:00
METAR RJSR 190700Z 21007KT 160V240 9999 FEW002 SCT015 BKN020 25/24
Q1008 RMK 1ST002 3CU015 7CU020 A2977=

花巻(RJSI)
07/19 16:00
METAR RJSI 190700Z 27003KT 230V300 9999 FEW030 SCT040 BKN080 30/25
Q1008 RMK 1CU030 3CU040 5AC080 A2978=

庄内(RJSY)
07/19 16:00
METAR RJSY 190700Z 08005KT 9999 -SHRA FEW015 SCT050 BKN070 27/25
Q1008 RMK 1CU015 4CU050 6AC070 A2977=

山形(RJSC)
07/19 16:00
METAR RJSC 190700Z 34005KT 300V020 9999 FEW035 BKN/// 29/25 Q1008
RMK 1CU035 A2979=

松島(RJST)
07/19 16:00
METAR RJST 190700Z 18007KT 9999 FEW008 SCT180 BKN200 27/25 Q1008 RMK
1ST008 3AC180 A2978 1ST008 SE=

霞の目(RJSU)
07/19 16:00
METAR RJSU 190700Z 14004KT 9999 FEW020 BKN230 28/24 Q1008 RMK 1CU020
5CI230 A2978=

仙台(RJSS)
07/19 16:00
METAR RJSS 190700Z 13005KT 9999 FEW040 BKN/// 27/24 Q1008 RMK 1CU040
A2977=

福島(RJSF)
07/19 16:00
METAR RJSF 190700Z VRB02KT 9999 FEW025 BKN/// 30/23 Q1010 RMK 1CU025
A2983=
Copyright(c) 2014 International Meteorological & Oceanographic Consultants Co,.Ltd. All Rights Reserved. Design by http://f-tpl.com